createdAt,value
2018-11-26T00:01:58.981Z,4.83
2018-11-26T00:04:26.575Z,5.20
2018-11-26T00:06:54.153Z,5.53
2018-11-26T00:09:21.805Z,6.77
2018-11-26T00:11:49.538Z,6.20
2018-11-26T00:14:17.136Z,5.30
2018-11-26T00:16:44.699Z,4.47
2018-11-26T00:19:12.301Z,9.77
2018-11-26T00:21:40.003Z,7.57
2018-11-26T00:24:07.693Z,7.17
2018-11-26T00:26:35.299Z,8.53
2018-11-26T00:29:02.925Z,6.50
2018-11-26T00:31:31.602Z,10.57
2018-11-26T00:33:59.205Z,6.83
2018-11-26T00:36:26.821Z,7.83
2018-11-26T00:38:54.446Z,7.47
2018-11-26T00:41:22.049Z,8.47
2018-11-26T00:43:49.631Z,5.93
2018-11-26T00:46:17.243Z,7.80
2018-11-26T00:48:44.820Z,5.83
2018-11-26T00:51:12.411Z,5.20
2018-11-26T00:53:40.008Z,6.03
2018-11-26T00:56:07.593Z,6.37
2018-11-26T00:58:35.223Z,6.23
2018-11-26T01:01:02.898Z,5.90
2018-11-26T01:03:30.474Z,6.10
2018-11-26T01:05:58.069Z,5.07
2018-11-26T01:08:25.670Z,5.23
2018-11-26T01:10:53.370Z,4.90
2018-11-26T01:13:21.003Z,5.53
2018-11-26T01:15:48.772Z,4.90
2018-11-26T01:18:16.397Z,4.60
2018-11-26T01:20:44.039Z,4.90
2018-11-26T01:23:11.640Z,5.00
2018-11-26T01:25:39.271Z,4.53
2018-11-26T01:28:06.931Z,5.10
2018-11-26T01:30:35.385Z,6.40
2018-11-26T01:33:03.020Z,5.03
2018-11-26T01:35:30.698Z,5.07
2018-11-26T01:37:59.278Z,4.53
2018-11-26T01:40:32.641Z,5.00
2018-11-26T01:43:00.261Z,4.83
2018-11-26T01:45:27.830Z,6.83
2018-11-26T01:47:55.434Z,6.43
2018-11-26T01:50:23.041Z,6.07
2018-11-26T01:52:50.634Z,7.03
2018-11-26T01:55:18.245Z,6.47
2018-11-26T01:57:45.826Z,5.73
2018-11-26T02:00:19.564Z,7.33
2018-11-26T02:02:47.210Z,6.03
2018-11-26T02:05:14.836Z,5.63
2018-11-26T02:07:42.774Z,6.47
2018-11-26T02:10:12.762Z,7.90
2018-11-26T02:12:40.517Z,8.23
2018-11-26T02:15:09.758Z,7.17
2018-11-26T02:17:38.658Z,10.07
2018-11-26T02:20:06.654Z,8.53
2018-11-26T02:22:34.443Z,9.27
2018-11-26T02:25:02.368Z,8.37
2018-11-26T02:27:30.037Z,8.90
2018-11-26T02:29:57.775Z,10.57
2018-11-26T02:32:25.664Z,8.70
2018-11-26T02:34:53.592Z,10.83
2018-11-26T02:37:21.230Z,8.63
2018-11-26T02:39:48.916Z,8.17
2018-11-26T02:42:16.617Z,9.90
2018-11-26T02:44:44.392Z,10.73
2018-11-26T02:47:12.044Z,8.73
2018-11-26T02:49:39.807Z,8.20
2018-11-26T02:52:08.022Z,9.97
2018-11-26T02:54:35.888Z,9.50
2018-11-26T02:57:03.688Z,9.53
2018-11-26T02:59:31.797Z,7.83
2018-11-26T03:01:59.520Z,8.17
2018-11-26T03:04:28.126Z,10.87
2018-11-26T03:06:56.040Z,10.57
2018-11-26T03:09:23.852Z,9.67
2018-11-26T03:11:51.547Z,9.50
2018-11-26T03:14:19.182Z,10.40
2018-11-26T03:16:46.833Z,11.53
2018-11-26T03:19:15.133Z,10.13
2018-11-26T03:21:42.983Z,11.77
2018-11-26T03:24:10.631Z,11.30
2018-11-26T03:26:38.845Z,10.83
2018-11-26T03:29:06.877Z,10.80
2018-11-26T03:31:34.722Z,12.50
2018-11-26T03:34:02.485Z,10.03
2018-11-26T03:36:31.255Z,12.57
2018-11-26T03:38:59.711Z,12.20
2018-11-26T03:41:27.276Z,11.30
2018-11-26T03:43:54.855Z,13.17
2018-11-26T03:46:22.507Z,11.40
2018-11-26T03:48:50.212Z,11.97
2018-11-26T03:51:17.859Z,11.10
2018-11-26T03:53:45.533Z,12.53
2018-11-26T03:56:13.190Z,10.97
2018-11-26T03:58:41.057Z,11.23
2018-11-26T04:01:08.731Z,11.00
2018-11-26T04:03:37.052Z,10.17
2018-11-26T04:06:04.769Z,10.30
2018-11-26T04:08:32.460Z,11.60
2018-11-26T04:11:01.620Z,12.50
2018-11-26T04:13:29.352Z,12.03
2018-11-26T04:15:57.633Z,11.80
2018-11-26T04:18:25.488Z,8.87
2018-11-26T04:20:53.720Z,11.27
2018-11-26T04:23:21.864Z,11.80
2018-11-26T04:25:49.464Z,11.93
2018-11-26T04:28:17.118Z,10.80
2018-11-26T04:30:44.824Z,10.47
2018-11-26T04:33:13.848Z,10.63
2018-11-26T04:35:41.537Z,10.63
2018-11-26T04:38:10.231Z,11.43
2018-11-26T04:40:37.977Z,11.93
2018-11-26T04:43:05.728Z,13.93
2018-11-26T04:45:34.309Z,14.00
2018-11-26T04:48:02.386Z,13.47
2018-11-26T04:50:33.323Z,12.77
2018-11-26T04:53:01.127Z,12.30
2018-11-26T04:55:28.858Z,12.10
2018-11-26T04:57:56.828Z,13.13
2018-11-26T05:00:24.476Z,12.70
2018-11-26T05:02:52.201Z,13.27
2018-11-26T05:05:19.843Z,14.27
2018-11-26T05:07:47.523Z,15.47
2018-11-26T05:10:15.147Z,13.23
2018-11-26T05:12:42.888Z,13.33
2018-11-26T05:15:11.554Z,11.90
2018-11-26T05:17:39.214Z,12.70
2018-11-26T05:20:13.793Z,12.03
2018-11-26T05:22:41.556Z,12.70
2018-11-26T05:25:09.941Z,13.07
2018-11-26T05:27:37.648Z,11.93
2018-11-26T05:30:07.467Z,11.50
2018-11-26T05:32:35.179Z,12.23
2018-11-26T05:35:02.945Z,12.20
2018-11-26T05:37:30.566Z,11.17
2018-11-26T05:39:58.227Z,10.03
2018-11-26T05:42:28.797Z,12.60
2018-11-26T05:44:53.531Z,14.00
2018-11-26T05:47:21.156Z,14.87
2018-11-26T05:49:48.901Z,13.50
2018-11-26T05:52:17.508Z,15.50
2018-11-26T05:54:45.091Z,11.50
2018-11-26T05:57:12.653Z,11.57
2018-11-26T05:59:40.229Z,14.77
2018-11-26T06:02:07.914Z,14.03
2018-11-26T06:04:35.524Z,10.87
2018-11-26T06:07:03.105Z,12.30
2018-11-26T06:09:31.802Z,13.10
2018-11-26T06:11:59.464Z,13.33
2018-11-26T06:14:27.137Z,13.30
2018-11-26T06:16:54.823Z,12.20
2018-11-26T06:19:22.973Z,13.23
2018-11-26T06:21:50.874Z,13.17
2018-11-26T06:24:18.425Z,13.20
2018-11-26T06:26:46.216Z,12.03
2018-11-26T06:29:14.748Z,11.50
2018-11-26T06:31:42.438Z,12.50
2018-11-26T06:34:10.304Z,13.90
2018-11-26T06:36:38.037Z,11.93
2018-11-26T06:39:07.581Z,14.23
2018-11-26T06:41:35.656Z,11.90
2018-11-26T06:44:04.429Z,12.47
2018-11-26T06:46:34.081Z,12.57
2018-11-26T06:49:01.658Z,16.10
2018-11-26T06:51:29.340Z,13.93
2018-11-26T06:53:58.368Z,12.57
2018-11-26T06:56:26.633Z,11.57
2018-11-26T06:58:54.441Z,12.40
2018-11-26T07:01:22.124Z,11.77
2018-11-26T07:03:49.806Z,10.93
2018-11-26T07:06:17.596Z,11.50
2018-11-26T07:08:45.367Z,12.47
2018-11-26T07:11:13.222Z,10.60
2018-11-26T07:13:42.008Z,12.70
2018-11-26T07:16:09.775Z,11.73
2018-11-26T07:18:37.502Z,13.57
2018-11-26T07:21:05.980Z,13.03
2018-11-26T07:23:33.710Z,13.90
2018-11-26T07:26:01.778Z,12.83
2018-11-26T07:28:29.510Z,14.90
2018-11-26T07:30:57.149Z,17.17
2018-11-26T07:33:24.790Z,14.30
2018-11-26T07:35:52.412Z,13.57
2018-11-26T07:38:20.268Z,13.27
2018-11-26T07:40:47.868Z,9.07
2018-11-26T07:43:15.684Z,8.47
2018-11-26T07:45:43.453Z,11.93
2018-11-26T07:48:11.729Z,11.63
2018-11-26T07:50:39.481Z,11.93
2018-11-26T07:53:08.188Z,10.03
2018-11-26T07:55:36.285Z,8.37
2018-11-26T07:58:03.993Z,9.77
2018-11-26T08:00:31.727Z,10.77
2018-11-26T08:02:59.401Z,9.73
2018-11-26T08:05:27.069Z,9.97
2018-11-26T08:07:55.248Z,9.57
2018-11-26T08:10:23.700Z,13.97
2018-11-26T08:12:52.388Z,12.17
2018-11-26T08:15:24.767Z,9.83
2018-11-26T08:17:52.386Z,13.37
2018-11-26T08:20:20.221Z,10.47
2018-11-26T08:22:48.065Z,11.13
2018-11-26T08:25:16.984Z,10.00
2018-11-26T08:27:45.636Z,10.20
2018-11-26T08:30:15.156Z,12.30
2018-11-26T08:32:43.709Z,13.13
2018-11-26T08:35:12.823Z,12.03
2018-11-26T08:37:46.202Z,11.20
2018-11-26T08:40:21.656Z,11.90
2018-11-26T08:44:02.783Z,13.07
2018-11-26T08:46:31.847Z,13.77
2018-11-26T08:49:06.993Z,15.70
2018-11-26T08:51:35.046Z,13.77
2018-11-26T08:54:02.747Z,16.23
2018-11-26T08:56:33.679Z,14.70
2018-11-26T08:59:02.610Z,13.30
2018-11-26T09:01:39.733Z,12.27
2018-11-26T09:04:14.693Z,11.53
2018-11-26T09:06:42.523Z,12.13
2018-11-26T09:09:11.143Z,12.97
2018-11-26T09:11:38.931Z,11.93
2018-11-26T09:14:06.585Z,9.70
2018-11-26T09:16:34.656Z,12.37
2018-11-26T09:19:02.317Z,10.23
2018-11-26T09:21:29.995Z,10.77
2018-11-26T09:23:57.629Z,11.43
2018-11-26T09:26:25.337Z,9.63
2018-11-26T09:28:53.074Z,12.80
2018-11-26T09:31:20.703Z,10.00
2018-11-26T09:33:48.433Z,11.17
2018-11-26T09:36:16.215Z,10.30
2018-11-26T09:38:44.046Z,10.17
2018-11-26T09:41:11.765Z,11.87
2018-11-26T09:43:39.689Z,11.00
2018-11-26T09:46:07.439Z,11.00
2018-11-26T09:48:35.148Z,11.83
2018-11-26T09:51:02.866Z,10.13
2018-11-26T09:53:30.584Z,11.60
2018-11-26T09:55:58.421Z,9.60
2018-11-26T09:58:26.163Z,13.10
2018-11-26T10:00:53.751Z,11.67
2018-11-26T10:03:21.487Z,10.57
2018-11-26T10:05:49.203Z,11.27
2018-11-26T10:08:16.981Z,13.07
2018-11-26T10:10:44.795Z,11.60
2018-11-26T10:13:12.453Z,13.20
2018-11-26T10:15:40.276Z,11.70
2018-11-26T10:18:08.000Z,10.30
2018-11-26T10:20:35.608Z,11.27
2018-11-26T10:23:03.344Z,12.40
2018-11-26T10:25:31.000Z,14.20
2018-11-26T10:27:58.600Z,12.73
2018-11-26T10:30:26.324Z,13.13
2018-11-26T10:32:54.028Z,14.77
2018-11-26T10:35:21.899Z,13.40
2018-11-26T10:37:49.570Z,13.30
2018-11-26T10:40:21.967Z,13.67
2018-11-26T10:42:49.729Z,14.33
2018-11-26T10:45:19.209Z,13.80
2018-11-26T10:47:46.927Z,12.23
2018-11-26T10:50:18.813Z,15.13
2018-11-26T10:52:50.395Z,13.80
2018-11-26T10:55:23.221Z,12.27
2018-11-26T10:57:50.934Z,12.30
2018-11-26T11:00:25.129Z,13.63
2018-11-26T11:02:52.842Z,13.30
2018-11-26T11:05:20.497Z,12.23
2018-11-26T11:07:48.173Z,12.90
2018-11-26T11:10:18.088Z,14.47
2018-11-26T11:12:45.761Z,15.23
2018-11-26T11:15:13.595Z,14.00
2018-11-26T11:17:41.389Z,16.00
2018-11-26T11:20:13.144Z,14.57
2018-11-26T11:22:40.915Z,15.30
2018-11-26T11:25:09.663Z,16.47
2018-11-26T11:27:37.405Z,15.97
2018-11-26T11:30:11.916Z,15.77
2018-11-26T11:32:39.903Z,17.23
2018-11-26T11:35:08.290Z,13.57
2018-11-26T11:37:36.354Z,16.07
2018-11-26T11:40:09.611Z,14.40
2018-11-26T11:42:37.393Z,17.10
2018-11-26T11:45:07.028Z,14.67
2018-11-26T11:47:34.818Z,14.53
2018-11-26T11:50:02.846Z,14.57
2018-11-26T11:52:31.683Z,14.60
2018-11-26T11:54:59.407Z,14.43
2018-11-26T11:57:27.591Z,13.10
2018-11-26T11:59:55.294Z,15.67
2018-11-26T12:02:22.954Z,12.63
2018-11-26T12:04:50.863Z,13.87
2018-11-26T12:07:18.359Z,13.47
2018-11-26T12:09:46.110Z,12.67
2018-11-26T12:12:13.735Z,12.90
2018-11-26T12:14:41.509Z,12.17
2018-11-26T12:17:09.266Z,11.47
2018-11-26T12:19:36.997Z,13.70
2018-11-26T12:22:04.864Z,12.10
2018-11-26T12:24:32.466Z,12.93
2018-11-26T12:27:00.144Z,11.23
2018-11-26T12:29:27.812Z,10.47
2018-11-26T12:31:56.525Z,13.20
2018-11-26T12:34:24.297Z,12.70
2018-11-26T12:36:52.022Z,13.30
2018-11-26T12:39:19.634Z,13.87
2018-11-26T12:41:47.493Z,13.23
2018-11-26T12:44:15.229Z,13.17
2018-11-26T12:46:42.900Z,13.70
2018-11-26T12:49:10.547Z,11.83
2018-11-26T12:51:38.237Z,13.00
2018-11-26T12:54:06.086Z,13.20
2018-11-26T12:56:33.702Z,11.17
2018-11-26T12:59:01.361Z,12.07
2018-11-26T13:01:29.226Z,13.73
2018-11-26T13:03:57.852Z,12.30
2018-11-26T13:06:25.580Z,10.17
2018-11-26T13:08:53.260Z,13.33
2018-11-26T13:11:21.057Z,12.10
2018-11-26T13:13:48.713Z,10.73
2018-11-26T13:16:16.474Z,10.33
2018-11-26T13:18:44.306Z,11.13
2018-11-26T13:21:12.066Z,10.27
2018-11-26T13:23:39.863Z,10.73
2018-11-26T13:26:08.635Z,10.47
2018-11-26T13:28:37.175Z,10.97
2018-11-26T13:31:05.229Z,9.97
2018-11-26T13:33:33.058Z,8.90
2018-11-26T13:36:00.665Z,8.87
2018-11-26T13:38:29.390Z,7.40
2018-11-26T13:40:57.148Z,7.13
2018-11-26T13:43:24.883Z,7.30
2018-11-26T13:45:52.559Z,7.43
2018-11-26T13:48:20.406Z,7.57
2018-11-26T13:50:50.667Z,7.70
2018-11-26T13:53:18.546Z,7.50
2018-11-26T13:55:46.286Z,8.60
2018-11-26T13:58:14.146Z,9.50
2018-11-26T14:00:41.902Z,10.27
2018-11-26T14:03:09.641Z,8.10
2018-11-26T14:05:37.281Z,7.30
2018-11-26T14:08:05.249Z,6.20
2018-11-26T14:10:32.913Z,7.53
2018-11-26T14:13:06.080Z,7.53
2018-11-26T14:15:34.858Z,7.10
2018-11-26T14:18:03.246Z,7.53
2018-11-26T14:20:30.993Z,8.43
2018-11-26T14:22:58.970Z,9.13
2018-11-26T14:25:27.279Z,8.60
2018-11-26T14:27:54.958Z,6.47
2018-11-26T14:30:24.671Z,8.37
2018-11-26T14:32:52.621Z,7.60
2018-11-26T14:35:21.251Z,7.60
2018-11-26T14:37:52.059Z,8.17
2018-11-26T14:40:31.799Z,6.40
2018-11-26T14:42:59.599Z,6.60
2018-11-26T14:45:27.400Z,6.43
2018-11-26T14:47:55.851Z,6.40
2018-11-26T14:50:24.287Z,9.27
2018-11-26T14:52:52.010Z,8.53
2018-11-26T14:55:26.649Z,10.83
2018-11-26T14:57:55.379Z,8.70
2018-11-26T15:00:23.128Z,8.17
2018-11-26T15:02:50.923Z,8.47
2018-11-26T15:05:18.737Z,14.53
2018-11-26T15:07:46.518Z,9.40
2018-11-26T15:10:15.096Z,10.17
2018-11-26T15:12:43.438Z,9.20
2018-11-26T15:15:13.514Z,10.83
2018-11-26T15:17:42.056Z,9.97
2018-11-26T15:20:18.613Z,9.87
2018-11-26T15:22:46.380Z,10.20
2018-11-26T15:25:17.857Z,11.73
2018-11-26T15:27:45.573Z,10.73
2018-11-26T15:30:16.695Z,9.63
2018-11-26T15:32:44.507Z,10.77
2018-11-26T15:35:14.012Z,10.33
2018-11-26T15:37:41.772Z,8.97
2018-11-26T15:40:11.490Z,9.60
2018-11-26T15:42:39.275Z,7.53
2018-11-26T15:45:25.851Z,10.17
2018-11-26T15:47:54.550Z,9.27
2018-11-26T15:50:22.198Z,8.83
2018-11-26T15:52:49.862Z,7.23
2018-11-26T15:55:19.886Z,8.60
2018-11-26T15:57:48.093Z,10.67
2018-11-26T16:00:17.499Z,10.40
2018-11-26T16:02:45.592Z,9.27
2018-11-26T16:05:16.508Z,10.23
2018-11-26T16:07:44.622Z,9.07
2018-11-26T16:10:13.134Z,9.47
2018-11-26T16:12:41.305Z,8.67
2018-11-26T16:15:14.172Z,7.67
2018-11-26T16:17:41.952Z,8.37
2018-11-26T16:20:12.317Z,8.30
2018-11-26T16:22:46.598Z,6.83
2018-11-26T16:25:16.556Z,7.10
2018-11-26T16:27:44.433Z,8.67
2018-11-26T16:30:13.441Z,9.07
2018-11-26T16:32:44.301Z,8.30
2018-11-26T16:35:17.304Z,11.80
2018-11-26T16:37:44.987Z,12.23
2018-11-26T16:40:14.034Z,9.30
2018-11-26T16:42:41.867Z,8.97
2018-11-26T16:45:13.358Z,11.10
2018-11-26T16:47:41.121Z,13.67
2018-11-26T16:50:11.042Z,12.73
2018-11-26T16:52:38.757Z,11.07
2018-11-26T16:55:08.596Z,12.10
2018-11-26T16:57:36.941Z,14.77
2018-11-26T17:00:10.784Z,12.07
2018-11-26T17:02:38.363Z,11.83
2018-11-26T17:05:11.023Z,10.90
2018-11-26T17:07:39.718Z,12.57
2018-11-26T17:10:08.762Z,12.90
2018-11-26T17:12:36.781Z,12.90
2018-11-26T17:15:07.085Z,12.00
2018-11-26T17:17:34.750Z,14.67
2018-11-26T17:20:02.503Z,11.43
2018-11-26T17:22:30.157Z,11.10
2018-11-26T17:24:57.859Z,10.20
2018-11-26T17:27:25.520Z,8.37
2018-11-26T17:29:53.570Z,10.67
2018-11-26T17:32:21.306Z,11.03
2018-11-26T17:34:49.023Z,9.13
2018-11-26T17:37:16.658Z,12.10
2018-11-26T17:39:44.403Z,12.47
2018-11-26T17:42:12.010Z,11.03
2018-11-26T17:44:39.672Z,12.03
2018-11-26T17:47:07.307Z,9.53
2018-11-26T17:49:35.093Z,11.93
2018-11-26T17:52:02.935Z,12.47
2018-11-26T17:54:30.777Z,10.37
2018-11-26T17:56:59.027Z,8.07
2018-11-26T17:59:27.969Z,7.60
2018-11-26T18:01:56.764Z,8.33
2018-11-26T18:04:25.199Z,6.93
2018-11-26T18:06:52.997Z,7.23
2018-11-26T18:09:22.864Z,7.73
2018-11-26T18:11:48.660Z,6.50
2018-11-26T18:14:16.410Z,7.80
2018-11-26T18:16:45.161Z,8.47
2018-11-26T18:19:14.442Z,12.07
2018-11-26T18:21:42.077Z,10.03
2018-11-26T18:24:09.935Z,11.90
2018-11-26T18:26:37.664Z,10.17
2018-11-26T18:29:06.940Z,9.43
2018-11-26T18:31:35.250Z,9.63
2018-11-26T18:34:03.567Z,8.60
2018-11-26T18:36:31.920Z,8.57
2018-11-26T18:39:00.307Z,10.27
2018-11-26T18:41:30.056Z,9.50
2018-11-26T18:43:58.557Z,7.87
2018-11-26T18:46:28.476Z,7.00
2018-11-26T18:48:57.262Z,7.07
2018-11-26T18:51:27.141Z,7.70
2018-11-26T18:53:55.368Z,6.50
2018-11-26T18:56:24.610Z,6.40
2018-11-26T18:58:53.338Z,6.90
2018-11-26T19:01:21.177Z,6.90
2018-11-26T19:03:49.058Z,7.43
2018-11-26T19:06:18.121Z,8.20
2018-11-26T19:08:46.870Z,8.30
2018-11-26T19:11:16.089Z,9.57
2018-11-26T19:13:55.463Z,8.70
2018-11-26T19:16:25.579Z,8.13
2018-11-26T19:18:53.258Z,10.33
2018-11-26T19:21:20.917Z,10.13
2018-11-26T19:23:48.688Z,8.73
2018-11-26T19:26:17.226Z,7.47
2018-11-26T19:28:46.556Z,7.43
2018-11-26T19:31:15.060Z,8.87
2018-11-26T19:33:42.690Z,10.27
2018-11-26T19:36:10.597Z,8.10
2018-11-26T19:38:38.212Z,7.53
2018-11-26T19:41:06.107Z,6.77
2018-11-26T19:43:34.389Z,6.67
2018-11-26T19:46:06.047Z,6.73
2018-11-26T19:48:33.829Z,7.60
2018-11-26T19:51:01.482Z,8.07
2018-11-26T19:53:29.194Z,7.90
2018-11-26T19:55:56.832Z,8.00
2018-11-26T19:58:25.482Z,8.00
2018-11-26T20:00:53.260Z,7.77
2018-11-26T20:03:26.183Z,6.27
2018-11-26T20:06:35.752Z,7.20
2018-11-26T20:09:04.794Z,11.00
2018-11-26T20:11:33.306Z,9.70
2018-11-26T20:14:00.027Z,7.33
2018-11-26T20:16:35.611Z,7.30
2018-11-26T20:19:03.220Z,7.87
2018-11-26T20:21:31.822Z,7.77
2018-11-26T20:23:59.438Z,7.83
2018-11-26T20:26:27.014Z,8.50
2018-11-26T20:28:56.882Z,8.87
2018-11-26T20:31:22.237Z,10.20
2018-11-26T20:33:50.042Z,9.27
2018-11-26T20:36:17.676Z,8.30
2018-11-26T20:38:45.289Z,7.80
2018-11-26T20:41:13.543Z,7.40
2018-11-26T20:43:41.229Z,8.50
2018-11-26T20:46:08.847Z,9.30
2018-11-26T20:48:40.698Z,8.03
2018-11-26T20:51:08.643Z,7.53
2018-11-26T20:53:37.363Z,8.07
2018-11-26T20:56:11.905Z,8.63
2018-11-26T20:58:39.550Z,7.50
2018-11-26T21:01:07.282Z,8.53
2018-11-26T21:03:34.877Z,6.87
2018-11-26T21:06:03.137Z,8.13
2018-11-26T21:08:30.785Z,8.03
2018-11-26T21:10:58.425Z,8.10
2018-11-26T21:13:26.049Z,7.50
2018-11-26T21:15:53.642Z,8.43
2018-11-26T21:18:21.217Z,8.03
2018-11-26T21:20:49.629Z,8.10
2018-11-26T21:23:22.044Z,10.67
2018-11-26T21:25:49.827Z,10.60
2018-11-26T21:28:17.678Z,8.10
2018-11-26T21:30:45.390Z,8.10
2018-11-26T21:33:13.008Z,9.13
2018-11-26T21:35:40.586Z,7.77
2018-11-26T21:38:09.373Z,6.77
2018-11-26T21:40:37.792Z,7.77
2018-11-26T21:43:05.752Z,10.17
2018-11-26T21:45:35.261Z,9.83
2018-11-26T21:48:02.875Z,6.97
2018-11-26T21:50:30.434Z,6.77
2018-11-26T21:52:58.079Z,6.93
2018-11-26T21:55:26.051Z,8.73
2018-11-26T21:57:53.585Z,7.30
2018-11-26T22:00:23.515Z,8.47
2018-11-26T22:02:52.127Z,8.50
2018-11-26T22:05:20.632Z,9.83
2018-11-26T22:07:48.229Z,7.97
2018-11-26T22:10:20.126Z,8.23
2018-11-26T22:12:51.037Z,7.90
2018-11-26T22:15:18.630Z,9.17
2018-11-26T22:17:47.358Z,8.47
2018-11-26T22:20:18.049Z,8.03
2018-11-26T22:22:46.135Z,6.00
2018-11-26T22:25:13.899Z,8.57
2018-11-26T22:27:41.495Z,11.53
2018-11-26T22:30:26.902Z,11.00
2018-11-26T22:32:54.541Z,11.57
2018-11-26T22:35:22.091Z,10.40
2018-11-26T22:37:49.701Z,9.73
2018-11-26T22:40:19.873Z,10.23
2018-11-26T22:42:47.445Z,9.53
2018-11-26T22:45:16.073Z,11.63
2018-11-26T22:47:46.378Z,9.67
2018-11-26T22:50:14.736Z,10.67
2018-11-26T22:52:42.583Z,10.57
2018-11-26T22:55:11.768Z,9.87
2018-11-26T22:57:39.895Z,10.00
2018-11-26T23:00:13.146Z,11.90
2018-11-26T23:02:41.714Z,10.37
2018-11-26T23:05:13.369Z,10.90
2018-11-26T23:07:40.962Z,9.53
2018-11-26T23:10:09.266Z,7.93
2018-11-26T23:12:36.905Z,8.30
2018-11-26T23:15:10.322Z,7.53
2018-11-26T23:17:37.927Z,7.13
2018-11-26T23:20:08.722Z,7.33
2018-11-26T23:22:36.549Z,7.63
2018-11-26T23:25:05.121Z,7.13
2018-11-26T23:27:37.987Z,6.93
2018-11-26T23:30:29.935Z,8.90
2018-11-26T23:33:02.207Z,7.53
2018-11-26T23:35:29.960Z,7.30
2018-11-26T23:37:57.666Z,7.70
2018-11-26T23:40:25.590Z,8.20
2018-11-26T23:42:53.188Z,8.67
2018-11-26T23:45:22.207Z,5.93
2018-11-26T23:47:49.782Z,6.50
2018-11-26T23:50:17.504Z,8.10
2018-11-26T23:52:45.787Z,7.20
2018-11-26T23:55:15.480Z,6.20
2018-11-26T23:57:43.687Z,6.77
